sensor_id;sensor_type;location;lat;lon;timestamp;pressure;altitude;pressure_sealevel;temperature;humidity
31162;BME280;17796;49.296;-117.656;2022-08-11T00:04:04;96200;;;30.40681;27.79684
31162;BME280;17796;49.296;-117.656;2022-08-11T00:19:09;96200;;;29.17775;29.75993
31162;BME280;17796;49.296;-117.656;2022-08-11T00:34:13;96200;;;32.62577;24.10695
31162;BME280;17796;49.296;-117.656;2022-08-11T00:49:26;96200;;;32.40753;24.65314
31162;BME280;17796;49.296;-117.656;2022-08-11T01:05:54;96200;;;32.4555;24.23929
31162;BME280;17796;49.296;-117.656;2022-08-11T01:21:53;96200;;;31.38906;27.37836
31162;BME280;17796;49.296;-117.656;2022-08-11T01:37:51;96200;;;30.73497;28.29729
31162;BME280;17796;49.296;-117.656;2022-08-11T01:53:23;96200;;;29.3458;30.66699
31162;BME280;17796;49.296;-117.656;2022-08-11T02:08:40;96200;;;30.04785;29.32686
31162;BME280;17796;49.296;-117.656;2022-08-11T02:23:48;96200;;;27.85182;31.53614
31162;BME280;17796;49.296;-117.656;2022-08-11T02:38:58;96200;;;27.86453;31.15244
31162;BME280;17796;49.296;-117.656;2022-08-11T02:54:10;96200;;;27.48048;32.29886
31162;BME280;17796;49.296;-117.656;2022-08-11T03:09:23;96200;;;27.82292;31.46602
31162;BME280;17796;49.296;-117.656;2022-08-11T03:24:47;96200;;;26.58309;33.21717
31162;BME280;17796;49.296;-117.656;2022-08-11T03:39:56;96300;;;25.59899;34.67223
31162;BME280;17796;49.296;-117.656;2022-08-11T03:55:09;96300;;;25.9932;33.42188
31162;BME280;17796;49.296;-117.656;2022-08-11T04:10:30;96300;;;25.09933;35.25366
31162;BME280;17796;49.296;-117.656;2022-08-11T04:25:56;96300;;;24.94558;35.62453
31162;BME280;17796;49.296;-117.656;2022-08-11T04:41:37;96300;;;25.26577;34.53662
31162;BME280;17796;49.296;-117.656;2022-08-11T04:57:01;96300;;;23.98151;38.51491
31162;BME280;17796;49.296;-117.656;2022-08-11T05:12:17;96300;;;24.03361;39.62336
31162;BME280;17796;49.296;-117.656;2022-08-11T05:27:32;96300;;;24.13113;39.33704
31162;BME280;17796;49.296;-117.656;2022-08-11T05:42:42;96400;;;23.92815;41.18084
31162;BME280;17796;49.296;-117.656;2022-08-11T05:57:54;96400;;;23.93514;39.06365
31162;BME280;17796;49.296;-117.656;2022-08-11T06:12:59;96400;;;23.19375;41.05267
31162;BME280;17796;49.296;-117.656;2022-08-11T06:28:05;96400;;;21.97718;45.65879
31162;BME280;17796;49.296;-117.656;2022-08-11T06:43:14;96400;;;22.85673;40.7327
31162;BME280;17796;49.296;-117.656;2022-08-11T06:58:24;96400;;;21.55218;46.1175
31162;BME280;17796;49.296;-117.656;2022-08-11T07:13:30;96400;;;21.55567;45.24293
31162;BME280;17796;49.296;-117.656;2022-08-11T07:28:39;96400;;;21.91047;42.9557
31162;BME280;17796;49.296;-117.656;2022-08-11T07:43:57;96400;;;21.86092;43.36729
31162;BME280;17796;49.296;-117.656;2022-08-11T07:59:02;96400;;;21.48229;46.67829
31162;BME280;17796;49.296;-117.656;2022-08-11T08:14:07;96400;;;21.69257;43.26775
31162;BME280;17796;49.296;-117.656;2022-08-11T08:29:11;96400;;;21.22564;45.97467
31162;BME280;17796;49.296;-117.656;2022-08-11T08:44:15;96400;;;21.45275;44.71483
31162;BME280;17796;49.296;-117.656;2022-08-11T08:59:21;96400;;;21.31045;44.63248
31162;BME280;17796;49.296;-117.656;2022-08-11T09:14:31;96500;;;20.9493;46.15068
31162;BME280;17796;49.296;-117.656;2022-08-11T09:29:37;96500;;;20.6485;45.90998
31162;BME280;17796;49.296;-117.656;2022-08-11T09:44:41;96500;;;20.52335;45.16877
31162;BME280;17796;49.296;-117.656;2022-08-11T09:59:45;96500;;;20.11296;47.18491
31162;BME280;17796;49.296;-117.656;2022-08-11T10:14:52;96500;;;20.12884;46.33669
31162;BME280;17796;49.296;-117.656;2022-08-11T10:29:59;96500;;;19.78104;49.36474
31162;BME280;17796;49.296;-117.656;2022-08-11T10:45:04;96500;;;19.72037;47.05214
31162;BME280;17796;49.296;-117.656;2022-08-11T11:00:09;96500;;;19.01141;53.48305
31162;BME280;17796;49.296;-117.656;2022-08-11T11:15:14;96500;;;18.83576;54.6838
31162;BME280;17796;49.296;-117.656;2022-08-11T11:30:19;96500;;;19.25059;52.21935
31162;BME280;17796;49.296;-117.656;2022-08-11T11:45:29;96500;;;18.87452;54.73099
31162;BME280;17796;49.296;-117.656;2022-08-11T12:00:33;96500;;;19.75372;49.58893
31162;BME280;17796;49.296;-117.656;2022-08-11T12:15:37;96500;;;17.86668;61.49165
31162;BME280;17796;49.296;-117.656;2022-08-11T12:30:41;96600;;;19.47928;50.81539
31162;BME280;17796;49.296;-117.656;2022-08-11T12:45:45;96500;;;19.3732;55.06905
31162;BME280;17796;49.296;-117.656;2022-08-11T13:00:50;96500;;;18.87293;54.95487
31162;BME280;17796;49.296;-117.656;2022-08-11T13:15:54;96600;;;19.62698;50.9225
31162;BME280;17796;49.296;-117.656;2022-08-11T13:30:59;96600;;;19.44435;54.06519
31162;BME280;17796;49.296;-117.656;2022-08-11T13:46:03;96600;;;18.74111;55.47856
31162;BME280;17796;49.296;-117.656;2022-08-11T14:01:07;96600;;;18.45429;60.29447
31162;BME280;17796;49.296;-117.656;2022-08-11T14:16:19;96600;;;20.31911;52.8529
31162;BME280;17796;49.296;-117.656;2022-08-11T14:31:28;96600;;;21.59728;50.41873
31162;BME280;17796;49.296;-117.656;2022-08-11T14:46:34;96600;;;22.34405;48.77138
31162;BME280;17796;49.296;-117.656;2022-08-11T15:01:38;96600;;;22.6887;46.28184
31162;BME280;17796;49.296;-117.656;2022-08-11T15:16:42;96600;;;24.20959;42.32997
31162;BME280;17796;49.296;-117.656;2022-08-11T15:31:47;96600;;;25.46113;40.39631
31162;BME280;17796;49.296;-117.656;2022-08-11T15:46:51;96600;;;23.75313;44.76336
31162;BME280;17796;49.296;-117.656;2022-08-11T16:01:59;96600;;;24.52596;42.05641
31162;BME280;17796;49.296;-117.656;2022-08-11T16:17:06;96500;;;26.60279;36.98901
31162;BME280;17796;49.296;-117.656;2022-08-11T16:32:15;96500;;;28.53639;33.02632
31162;BME280;17796;49.296;-117.656;2022-08-11T16:47:22;96500;;;29.84549;30.11501
31162;BME280;17796;49.296;-117.656;2022-08-11T17:02:29;96500;;;31.71754;26.98027
31162;BME280;17796;49.296;-117.656;2022-08-11T17:17:36;96500;;;32.12067;26.19729
31162;BME280;17796;49.296;-117.656;2022-08-11T17:32:42;96500;;;32.69471;25.40025
31162;BME280;17796;49.296;-117.656;2022-08-11T17:47:49;96500;;;32.65182;26.42857
31162;BME280;17796;49.296;-117.656;2022-08-11T18:02:53;96400;;;32.89104;25.44653
31162;BME280;17796;49.296;-117.656;2022-08-11T18:17:59;96400;;;34.10744;23.45262
31162;BME280;17796;49.296;-117.656;2022-08-11T18:33:02;96400;;;34.67642;23.20017
31162;BME280;17796;49.296;-117.656;2022-08-11T18:48:11;96400;;;34.73074;23.1798
31162;BME280;17796;49.296;-117.656;2022-08-11T19:03:18;96300;;;34.7425;22.66905
31162;BME280;17796;49.296;-117.656;2022-08-11T19:18:24;96300;;;33.40854;24.56543
31162;BME280;17796;49.296;-117.656;2022-08-11T19:33:29;96300;;;33.97147;23.54232
31162;BME280;17796;49.296;-117.656;2022-08-11T19:48:33;96300;;;35.35404;22.49136
31162;BME280;17796;49.296;-117.656;2022-08-11T20:03:38;96200;;;34.82891;20.71323
31162;BME280;17796;49.296;-117.656;2022-08-11T20:18:42;96200;;;37.91974;18.01859
31162;BME280;17796;49.296;-117.656;2022-08-11T20:33:47;96200;;;35.90492;18.35312
31162;BME280;17796;49.296;-117.656;2022-08-11T20:48:51;96200;;;38.18247;17.10747
31162;BME280;17796;49.296;-117.656;2022-08-11T21:03:57;96200;;;39.6404;17.65466
31162;BME280;17796;49.296;-117.656;2022-08-11T21:19:03;96100;;;40.42228;16.65425
31162;BME280;17796;49.296;-117.656;2022-08-11T21:34:13;96100;;;36.09236;21.07267
31162;BME280;17796;49.296;-117.656;2022-08-11T21:49:20;96100;;;36.94314;20.08359
31162;BME280;17796;49.296;-117.656;2022-08-11T22:04:27;96100;;;38.24569;19.21159
31162;BME280;17796;49.296;-117.656;2022-08-11T22:19:33;96100;;;39.52476;16.5677
31162;BME280;17796;49.296;-117.656;2022-08-11T22:34:39;96100;;;37.33994;19.89415
31162;BME280;17796;49.296;-117.656;2022-08-11T22:49:46;96000;;;36.12158;20.59532
31162;BME280;17796;49.296;-117.656;2022-08-11T23:04:54;96000;;;39.06155;17.22034
31162;BME280;17796;49.296;-117.656;2022-08-11T23:19:59;96000;;;38.84011;17.09361
31162;BME280;17796;49.296;-117.656;2022-08-11T23:35:03;96000;;;33.91302;21.95686
31162;BME280;17796;49.296;-117.656;2022-08-11T23:50:09;96000;;;34.72852;22.13537
